Serenade Of The Seas — C6FV8 — position and weather

sailwx.info

Track history (hours):
 
Tides and Currents Weather Stations Pressure Air Temp Water Temp Dewpoint Dewpoint Depression Visibility Wind Speed Wind Dir Waves Ship Positions

Serenade Of The Seas

Operator: Royal Caribbean Cruises Ltd

Last reported at 2015-Mar-28 22:31 UTC. Time now 2015-Mar-30 05:54 UTC.
Position N 29°52' W 089°59'.

Length 294 m; draft 8.5 m.

Type: Ship. MMSI: 311492000.

Date/timePositionNaut miles runAvg speedWind from/ knotsBaromVisibWave heightAir tempDewpointWater temp
2015-Mar-28 22:31N 29°52' W 089°59'5 5.4
2015-Mar-28 21:32N 29°57' W 090°01'2 1.9
2015-Mar-28 20:21N 29°57' W 090°04'1 0.1
2015-Mar-28 11:32N 29°57' W 090°03'6 4.7
2015-Mar-28 10:10N 29°53' W 089°58'43112.3
2015-Mar-26 23:17N 24°57' W 084°05'21113.1
2015-Mar-26 07:07N 24°60' W 080°12'915.4
2015-Mar-26 06:33N 25°06' W 080°06'1514.8
2015-Mar-26 05:33N 25°16' W 079°54'3515.2
2015-Mar-26 03:17N 25°45' W 079°32'1216.4
2015-Mar-26 02:33N 25°55' W 079°25'1616.4
2015-Mar-26 01:33N 26°07' W 079°13'1616.3
2015-Mar-26 00:33N 26°10' W 078°55'1717.5
2015-Mar-25 23:33N 26°05' W 078°36'1916.0
2015-Mar-25 22:23N 25°59' W 078°17'1214.1
2015-Mar-25 21:33N 25°54' W 078°05'68 1.8
2015-Mar-24 07:07N 25°57' W 079°20'1118.7
2015-Mar-24 06:31N 25°48' W 079°27'148 9.8
2015-Mar-23 15:24N 24°34' W 081°49'0 0.0
2015-Mar-23 14:24N 24°34' W 081°49'0 0.0
2015-Mar-23 13:27N 24°34' W 081°49'12511.3
2015-Mar-23 02:24N 24°51' W 084°04'43516.1
2015-Mar-21 23:25N 29°50' W 089°60'6 7.1
2015-Mar-21 22:33N 29°55' W 089°57'6 2.8
2015-Mar-21 20:32N 29°57' W 090°04'0 0.0
2015-Mar-21 18:08N 29°57' W 090°04'0 0.0
2015-Mar-21 17:32N 29°57' W 090°04'0 0.0
2015-Mar-21 14:26N 29°57' W 090°04'0 0.0
2015-Mar-21 12:26N 29°57' W 090°04'5 5.2
2015-Mar-21 11:30N 29°55' W 089°58'5 5.5
2015-Mar-21 10:33N 29°50' W 089°59'58116.1
2015-Mar-19 22:30N 20°33' W 086°57'4 3.8
2015-Mar-19 21:26N 20°29' W 086°59'0 0.0
2015-Mar-19 20:29N 20°29' W 086°59'0 0.0
2015-Mar-19 19:29N 20°29' W 086°59'0 0.0
2015-Mar-19 18:29N 20°29' W 086°59'0 0.0
2015-Mar-19 17:29N 20°29' W 086°59'0 0.0
2015-Mar-19 16:29N 20°29' W 086°59'0 0.0
2015-Mar-19 15:29N 20°29' W 086°59'0 0.0
2015-Mar-19 14:32N 20°29' W 086°59'1 0.8
2015-Mar-19 13:33N 20°30' W 086°59'  
Track history (hours):
 
Tides and Currents Weather Stations Pressure Air Temp Water Temp Dewpoint Dewpoint Depression Visibility Wind Speed Wind Dir Waves Ship Positions

Serenade Of The Seas

Operator: Royal Caribbean Cruises Ltd

Last reported at 2015-Mar-28 22:31 UTC. Time now 2015-Mar-30 05:54 UTC.
Position N 29°52' W 089°59'.

Length 294 m; draft 8.5 m.

Type: Ship. MMSI: 311492000.

Date/timePositionNaut miles runAvg speedWind from/ knotsBaromVisibWave heightAir tempDewpointWater temp
2015-Mar-28 22:31N 29°52' W 089°59'5 5.4
2015-Mar-28 21:32N 29°57' W 090°01'2 1.9
2015-Mar-28 20:21N 29°57' W 090°04'1 0.1
2015-Mar-28 11:32N 29°57' W 090°03'6 4.7
2015-Mar-28 10:10N 29°53' W 089°58'43112.3
2015-Mar-26 23:17N 24°57' W 084°05'21113.1
2015-Mar-26 07:07N 24°60' W 080°12'915.4
2015-Mar-26 06:33N 25°06' W 080°06'1514.8
2015-Mar-26 05:33N 25°16' W 079°54'3515.2
2015-Mar-26 03:17N 25°45' W 079°32'1216.4
2015-Mar-26 02:33N 25°55' W 079°25'1616.4
2015-Mar-26 01:33N 26°07' W 079°13'1616.3
2015-Mar-26 00:33N 26°10' W 078°55'1717.5
2015-Mar-25 23:33N 26°05' W 078°36'1916.0
2015-Mar-25 22:23N 25°59' W 078°17'1214.1
2015-Mar-25 21:33N 25°54' W 078°05'68 1.8
2015-Mar-24 07:07N 25°57' W 079°20'1118.7
2015-Mar-24 06:31N 25°48' W 079°27'148 9.8
2015-Mar-23 15:24N 24°34' W 081°49'0 0.0
2015-Mar-23 14:24N 24°34' W 081°49'0 0.0
2015-Mar-23 13:27N 24°34' W 081°49'12511.3
2015-Mar-23 02:24N 24°51' W 084°04'43516.1
2015-Mar-21 23:25N 29°50' W 089°60'6 7.1
2015-Mar-21 22:33N 29°55' W 089°57'6 2.8
2015-Mar-21 20:32N 29°57' W 090°04'0 0.0
2015-Mar-21 18:08N 29°57' W 090°04'0 0.0
2015-Mar-21 17:32N 29°57' W 090°04'0 0.0
2015-Mar-21 14:26N 29°57' W 090°04'0 0.0
2015-Mar-21 12:26N 29°57' W 090°04'5 5.2
2015-Mar-21 11:30N 29°55' W 089°58'5 5.5
2015-Mar-21 10:33N 29°50' W 089°59'58116.1
2015-Mar-19 22:30N 20°33' W 086°57'4 3.8
2015-Mar-19 21:26N 20°29' W 086°59'0 0.0
2015-Mar-19 20:29N 20°29' W 086°59'0 0.0
2015-Mar-19 19:29N 20°29' W 086°59'0 0.0
2015-Mar-19 18:29N 20°29' W 086°59'0 0.0
2015-Mar-19 17:29N 20°29' W 086°59'0 0.0
2015-Mar-19 16:29N 20°29' W 086°59'0 0.0
2015-Mar-19 15:29N 20°29' W 086°59'0 0.0
2015-Mar-19 14:32N 20°29' W 086°59'1 0.8
2015-Mar-19 13:33N 20°30' W 086°59'  

Dump ship's entire track history